Αναφορές METAR

 

LGKZ - Kozani (civ/Army, Greece
Distance from station: ΝΔ 41km
Ενημερώθηκε: 21/10/2021 17:50

 Ανεμος από varies
Ανεμος: varies 6 km/h
Θερμοκρασία: 20°C
Σημείο Δρόσου: 4°C
Υγρασία: 35%
Βαρόμετρο: 1020 hPa
2021/10/21 14:50 LGKZ 211450Z AUTO VRB03KT //// // ////// 20/04 Q1020 RE//
LGTS - Thessaloniki/Mik, Greece
Distance from station: Α 64km
Ενημερώθηκε: 21/10/2021 18:20
Few Clouds
Few Clouds
 Ανεμος από Ν
Ανεμος: Ν 13 km/h
Θερμοκρασία: 18°C
Σημείο Δρόσου: 12°C
Υγρασία: 68%
Βαρόμετρο: 1019 hPa
Clouds: Few Clouds
Visibility: 10 km
Cloud details: Few Clouds 549 m
2021/10/21 15:20 LGTS 211520Z 17007KT 9999 FEW018 18/12 Q1019 NOSIG
 
LGIO - Ioannina, Greece
Distance from station: ΝΔ 149km
Ενημερώθηκε: 21/10/2021 18:20
Συννεφιά
Συννεφιά
 Ανεμος από calm
Ανεμος: Απνοια
Θερμοκρασία: 15°C
Σημείο Δρόσου: 11°C
Υγρασία: 77%
Βαρόμετρο: 1022 hPa
Clouds: Συννεφιά
Visibility: 10 km
Cloud details: Μερικώς νεφελώδης 762 m
Συννεφιά 2134 m
2021/10/21 15:20 LGIO 211520Z 00000KT 9999 SCT025 OVC070 15/11 Q1022
LGBL - Nea Anchialos, Greece
Distance from station: ΝΝΑ 154km
Ενημερώθηκε: 21/10/2021 18:20
Αίθριος
Αίθριος
 Ανεμος από Α
Ανεμος: Α 7 km/h
Θερμοκρασία: 19°C
Σημείο Δρόσου: 13°C
Υγρασία: 68%
Βαρόμετρο: 1019 hPa
Περίληψη: Αίθριος
Visibility: greater than 10 km
2021/10/21 15:20 LGBL 211520Z 09004KT CAVOK 19/13 Q1019
 
LGSK - Skiathos Island, Greece
Distance from station: ΝΑ 185km
Ενημερώθηκε: 21/10/2021 17:20
Αίθριος
Αίθριος
 Ανεμος από ΝΝΑ
Ανεμος: ΝΝΑ 7 km/h
Θερμοκρασία: 20°C
Σημείο Δρόσου: 13°C
Υγρασία: 64%
Βαρόμετρο: 1019 hPa
Περίληψη: Αίθριος
Visibility: greater than 10 km
2021/10/21 14:20 LGSK 211420Z 15004KT CAVOK 20/13 Q1019
LGKV - Kavala/Chrisoupo, Greece
Distance from station: ΑΒΑ 208km
Ενημερώθηκε: 21/10/2021 18:20
Few Clouds
Few Clouds
 Ανεμος από ΝΝΔ
Ανεμος: ΝΝΔ 17 km/h
Θερμοκρασία: 17°C
Σημείο Δρόσου: 12°C
Υγρασία: 73%
Βαρόμετρο: 1019 hPa
Clouds: Few Clouds
Visibility: 10 km
Cloud details: Few Clouds 762 m
2021/10/21 15:20 LGKV 211520Z 21009KT 9999 FEW025 17/12 Q1019
 
LGPZ - Preveza/Aktion, Greece
Distance from station: ΝΔ 217km
Ενημερώθηκε: 21/10/2021 18:20
Σχεδόν νεφελώδης
Σχεδόν νεφελώδης
 Ανεμος από ΑΒΑ
Ανεμος: ΑΒΑ 9 km/h
Θερμοκρασία: 19°C
Σημείο Δρόσου: 14°C
Υγρασία: 73%
Βαρόμετρο: 1021 hPa
Clouds: Σχεδόν νεφελώδης
Visibility: 10 km
Cloud details: Μερικώς νεφελώδης 610 m
Σχεδόν νεφελώδης 2438 m
2021/10/21 15:20 LGPZ 211520Z 07005KT 9999 SCT020 BKN080 19/14 Q1021
LGKR - Ioannis Kapodist, Greece
Distance from station: ΔΝΔ 219km
Ενημερώθηκε: 21/10/2021 18:20
Ασθενής βροχή, Σχεδόν νεφελώδης
Ασθενής βροχή, Σχεδόν νεφελώδης
 Ανεμος από Α
Ανεμος: Α 9 km/h
Θερμοκρασία: 18°C
Σημείο Δρόσου: 15°C
Υγρασία: 83%
Βαρόμετρο: 1021 hPa
Περίληψη: Ασθενής βροχή
Clouds: Σχεδόν νεφελώδης
Visibility: 10 km
Cloud details: Few Clouds 518 m
Σχεδόν νεφελώδης 610 m
2021/10/21 15:20 LGKR 211520Z 09005KT 9999 -RA FEW017 BKN020 18/15 Q1021 NOSIG
 
LGSY - Skiros, Greece
Distance from station: ΝΑ 261km
Ενημερώθηκε: 21/10/2021 17:50
Αίθριος
Αίθριος
 Ανεμος από ΝΑ
Ανεμος: ΝΑ 7 km/h
Θερμοκρασία: 18°C
Σημείο Δρόσου: 12°C
Υγρασία: 68%
Βαρόμετρο: 1020 hPa
Περίληψη: Αίθριος
Visibility: greater than 10 km
2021/10/21 14:50 LGSY 211450Z 14004KT CAVOK 18/12 Q1020 BLU
LGLM - Limnos Island Ar, Greece
Distance from station: ΑΝΑ 266km
Ενημερώθηκε: 21/10/2021 18:20
Few Clouds
Few Clouds
 Ανεμος από ΝΔ
Ανεμος: ΝΔ 7 km/h
Θερμοκρασία: 17°C
Σημείο Δρόσου: 14°C
Υγρασία: 83%
Βαρόμετρο: 1020 hPa
Clouds: Few Clouds
Visibility: 10 km
Cloud details: Few Clouds 549 m
2021/10/21 15:20 LGLM 211520Z 22004KT 9999 FEW018 17/14 Q1020
 
LGRX - Araxos (civ/Afb), Greece
Distance from station: ΝΝΔ 271km
Ενημερώθηκε: 21/10/2021 18:20
Σχεδόν νεφελώδης
Σχεδόν νεφελώδης
 Ανεμος από varies
Ανεμος: varies 6 km/h
Θερμοκρασία: 21°C
Σημείο Δρόσου: 12°C
Υγρασία: 57%
Βαρόμετρο: 1021 hPa
Clouds: Σχεδόν νεφελώδης
Visibility: 10 km
Cloud details: Few Clouds 762 m
Σχεδόν νεφελώδης 1829 m
2021/10/21 15:20 LGRX 211520Z VRB03KT 9999 FEW025 BKN060 21/12 Q1021
LGEL - Elefsis (hel-Afb, Greece
Distance from station: ΝΝΑ 297km
Ενημερώθηκε: 21/10/2021 18:20
Few Clouds
Few Clouds
 Ανεμος από Ν
Ανεμος: Ν 15 km/h
Θερμοκρασία: 20°C
Σημείο Δρόσου: 13°C
Υγρασία: 64%
Βαρόμετρο: 1018 hPa
Clouds: Few Clouds
Visibility: 10 km
Cloud details: Few Clouds 762 m
2021/10/21 15:20 LGEL 211520Z 17008KT 9999 FEW025 20/13 Q1018
 
LGAD - Andravida (civ/A, Greece
Distance from station: ΝΝΔ 301km
Ενημερώθηκε: 21/10/2021 18:20
Few Clouds
Few Clouds
 Ανεμος από Δ
Ανεμος: Δ 7 km/h
Θερμοκρασία: 21°C
Σημείο Δρόσου: 12°C
Υγρασία: 57%
Βαρόμετρο: 1022 hPa
Clouds: Few Clouds
Visibility: 10 km
Cloud details: Few Clouds 610 m
2021/10/21 15:20 LGAD 211520Z 27004KT 9999 FEW020 21/12 Q1022
LGKF - Kefallinia, Greece
Distance from station: ΝΝΔ 305km
Ενημερώθηκε: 21/10/2021 17:50
Μερικώς νεφελώδης
Μερικώς νεφελώδης
 Ανεμος από calm
Ανεμος: Απνοια
Θερμοκρασία: 21°C
Σημείο Δρόσου: 15°C
Υγρασία: 69%
Βαρόμετρο: 1022 hPa
Clouds: Μερικώς νεφελώδης
Visibility: 10 km
Cloud details: Μερικώς νεφελώδης 457 m
Μερικώς νεφελώδης 549 m
2021/10/21 14:50 LGKF 211450Z 00000KT 9999 SCT015 SCT018 21/15 Q1022